Time;durP1;ratioP1;P1;durP2;ratioP2;P2;SDS_P1;SDS_P2;PMS_P1;PMS_P2;Temp;Humidity;BMP_temperature;BMP_pressure;BME280_temperature;BME280_humidity;BME280_pressure;Samples;Min_cycle;Max_cycle;Signal;HPM_P1;HPM_P2
2021/08/24 00:02:13;;;;;;;3.83;0.90;;;15.70;99.90;;;;;;5150879;28;20246;-65
2021/08/24 00:04:45;;;;;;;2.50;0.97;;;15.70;99.90;;;;;;5151101;28;20207;-65
2021/08/24 00:07:17;;;;;;;3.47;0.80;;;15.70;99.90;;;;;;5168163;28;20211;-66
2021/08/24 00:09:49;;;;;;;3.73;0.90;;;15.70;99.90;;;;;;5156715;28;20210;-64
2021/08/24 00:12:21;;;;;;;3.27;0.77;;;15.70;99.90;;;;;;5176240;28;20207;-66
2021/08/24 00:14:53;;;;;;;4.20;1.20;;;15.70;99.90;;;;;;5155182;28;20211;-64
2021/08/24 00:17:27;;;;;;;1.93;1.00;;;15.70;99.90;;;;;;5167913;28;20218;-65
2021/08/24 00:19:59;;;;;;;2.80;1.00;;;15.60;99.90;;;;;;5139629;28;20195;-65
2021/08/24 00:22:30;;;;;;;4.13;1.00;;;15.70;99.90;;;;;;5187987;28;20211;-64
2021/08/24 00:25:05;;;;;;;5.97;1.07;;;15.60;99.90;;;;;;5187590;28;20216;-67
2021/08/24 00:27:40;;;;;;;2.37;0.70;;;15.50;99.90;;;;;;5187920;28;20289;-68
2021/08/24 00:30:13;;;;;;;4.67;1.03;;;15.60;99.90;;;;;;5187836;28;20221;-62
2021/08/24 00:32:45;;;;;;;3.10;1.43;;;15.60;99.90;;;;;;5187743;28;20666;-67
2021/08/24 00:35:19;;;;;;;2.53;1.03;;;15.60;99.90;;;;;;5170251;28;20217;-68
2021/08/24 00:37:52;;;;;;;1.80;0.87;;;15.60;99.90;;;;;;5170725;28;20533;-69
2021/08/24 00:40:24;;;;;;;2.43;0.90;;;15.60;99.90;;;;;;5187490;28;20582;-64
2021/08/24 00:42:56;;;;;;;3.73;1.10;;;15.60;99.90;;;;;;5154627;28;20223;-67
2021/08/24 00:45:30;;;;;;;4.70;1.10;;;15.60;99.90;;;;;;5187901;28;20559;-64
2021/08/24 00:48:02;;;;;;;4.93;1.03;;;15.50;99.90;;;;;;5188374;28;20217;-67
2021/08/24 00:50:47;;;;;;;2.73;1.20;;;15.60;99.90;;;;;;5170714;28;20203;-66
2021/08/24 00:53:22;;;;;;;3.27;1.13;;;15.60;99.90;;;;;;5187846;28;20606;-65
2021/08/24 00:55:58;;;;;;;2.27;1.00;;;15.60;99.90;;;;;;5187686;28;20482;-64
2021/08/24 00:58:30;;;;;;;2.90;0.90;;;15.60;99.90;;;;;;5187378;28;20210;-67
2021/08/24 01:01:03;;;;;;;3.53;1.17;;;15.60;99.90;;;;;;5187221;28;20246;-66
2021/08/24 01:03:42;;;;;;;3.63;1.00;;;15.60;99.90;;;;;;5187562;28;20213;-65
2021/08/24 01:06:19;;;;;;;5.23;1.10;;;15.60;99.90;;;;;;5170634;28;20242;-65
2021/08/24 01:08:51;;;;;;;1.93;1.00;;;15.60;99.90;;;;;;5187813;28;20206;-66
2021/08/24 01:11:32;;;;;;;2.70;1.00;;;15.60;99.90;;;;;;5187344;28;20313;-67
2021/08/24 01:14:16;;;;;;;3.57;1.10;;;15.60;99.90;;;;;;5187622;28;20272;-66
2021/08/24 01:17:07;;;;;;;3.67;1.00;;;15.60;99.90;;;;;;5187240;28;20231;-67
2021/08/24 01:19:54;;;;;;;4.87;1.80;;;15.60;99.90;;;;;;5187854;28;20198;-69
2021/08/24 01:22:41;;;;;;;3.20;1.20;;;15.50;99.90;;;;;;5187400;28;20242;-63
2021/08/24 01:25:37;;;;;;;4.77;1.10;;;15.50;99.90;;;;;;5186984;28;20206;-63
2021/08/24 01:28:38;;;;;;;2.93;1.43;;;15.50;99.90;;;;;;5187304;28;20203;-66
2021/08/24 01:31:25;;;;;;;2.83;1.00;;;15.50;99.90;;;;;;5187459;28;20541;-68
2021/08/24 01:34:00;;;;;;;2.90;1.10;;;15.50;99.90;;;;;;5170581;28;20203;-65
2021/08/24 01:37:03;;;;;;;4.43;1.43;;;15.50;99.90;;;;;;5187556;28;20211;-66
2021/08/24 01:39:52;;;;;;;2.93;1.07;;;15.60;99.90;;;;;;5187135;28;20206;-65
2021/08/24 01:42:30;;;;;;;4.70;1.30;;;15.60;99.90;;;;;;5170095;28;20246;-62
2021/08/24 01:45:15;;;;;;;4.20;1.10;;;15.50;99.90;;;;;;5170464;28;20199;-66
2021/08/24 01:47:57;;;;;;;2.53;1.00;;;15.60;99.90;;;;;;5170504;28;20237;-70
2021/08/24 01:50:43;;;;;;;3.37;1.00;;;15.60;99.90;;;;;;5191329;28;20194;-66
2021/08/24 01:53:23;;;;;;;3.47;1.20;;;15.60;99.90;;;;;;5173326;28;20230;-64
2021/08/24 01:56:02;;;;;;;3.50;1.23;;;15.50;99.90;;;;;;5191579;28;20587;-67
2021/08/24 01:58:47;;;;;;;3.97;1.10;;;15.50;99.90;;;;;;5191051;28;20246;-60
2021/08/24 02:01:28;;;;;;;2.90;1.27;;;15.50;99.90;;;;;;5190769;28;20243;-64
2021/08/24 02:04:04;;;;;;;3.03;1.00;;;15.50;99.90;;;;;;5173465;28;20293;-64
2021/08/24 02:06:42;;;;;;;3.00;1.43;;;15.50;99.90;;;;;;5191101;28;20183;-64
2021/08/24 02:09:24;;;;;;;5.93;1.40;;;15.40;99.90;;;;;;5190966;28;20202;-65
2021/08/24 02:12:00;;;;;;;3.37;1.50;;;15.50;99.90;;;;;;5191514;28;20191;-67
2021/08/24 02:14:36;;;;;;;4.37;1.47;;;15.50;99.90;;;;;;5174220;28;20202;-65
2021/08/24 02:17:12;;;;;;;5.13;1.63;;;15.50;99.90;;;;;;5192190;28;20194;-68
2021/08/24 02:19:51;;;;;;;3.47;1.10;;;15.50;99.90;;;;;;5190725;28;20210;-66
2021/08/24 02:22:33;;;;;;;4.47;1.40;;;15.50;99.90;;;;;;5173648;28;20234;-62
2021/08/24 02:25:12;;;;;;;4.33;1.50;;;15.50;99.90;;;;;;5190716;28;20237;-65
2021/08/24 02:27:50;;;;;;;2.40;1.40;;;15.50;99.90;;;;;;5173633;28;20183;-65
2021/08/24 02:30:23;;;;;;;5.30;1.53;;;15.50;99.90;;;;;;5190109;28;20203;-68
2021/08/24 02:32:59;;;;;;;5.53;1.77;;;15.40;99.90;;;;;;5189987;28;20207;-66
2021/08/24 02:35:48;;;;;;;3.67;1.70;;;15.40;99.90;;;;;;5189895;28;20206;-63
2021/08/24 02:38:25;;;;;;;3.33;1.53;;;15.30;99.90;;;;;;5172765;28;20227;-66
2021/08/24 02:41:08;;;;;;;3.90;1.60;;;15.30;99.90;;;;;;5189820;28;20202;-66
2021/08/24 02:44:04;;;;;;;4.90;1.90;;;15.20;99.90;;;;;;5190096;28;20234;-65
2021/08/24 02:46:43;;;;;;;4.10;1.77;;;15.20;99.90;;;;;;5172771;28;20199;-67
2021/08/24 02:49:25;;;;;;;4.27;1.97;;;15.20;99.90;;;;;;5189791;28;20223;-66
2021/08/24 02:52:00;;;;;;;4.37;1.80;;;15.10;99.90;;;;;;5172506;28;20204;-67
2021/08/24 02:54:41;;;;;;;6.80;1.90;;;15.00;99.90;;;;;;5190151;28;20245;-63
2021/08/24 02:57:16;;;;;;;3.87;1.80;;;14.90;99.90;;;;;;5173242;28;20198;-67
2021/08/24 02:59:48;;;;;;;5.60;1.50;;;14.80;99.90;;;;;;5189078;28;20245;-63
2021/08/24 03:02:21;;;;;;;5.13;2.40;;;14.80;99.90;;;;;;5171848;28;20242;-64
2021/08/24 03:04:54;;;;;;;3.60;1.70;;;14.70;99.90;;;;;;5189573;28;20617;-66
2021/08/24 03:07:29;;;;;;;4.27;1.70;;;14.70;99.90;;;;;;5172454;28;20203;-65
2021/08/24 03:10:07;;;;;;;3.90;1.70;;;14.70;99.90;;;;;;5189633;28;20226;-62
2021/08/24 03:13:05;;;;;;;4.07;1.70;;;14.70;99.90;;;;;;5189823;28;20721;-64
2021/08/24 03:15:37;;;;;;;3.43;1.80;;;14.60;99.90;;;;;;5190259;28;20206;-67
2021/08/24 03:18:35;;;;;;;3.97;1.83;;;14.60;99.90;;;;;;5189747;28;20611;-67
2021/08/24 03:21:12;;;;;;;3.80;1.70;;;14.60;99.90;;;;;;5189499;28;20206;-64
2021/08/24 03:23:46;;;;;;;4.77;1.80;;;14.60;99.90;;;;;;5190236;28;20241;-67
2021/08/24 03:26:28;;;;;;;3.53;1.50;;;14.60;99.90;;;;;;5189217;28;20199;-65
2021/08/24 03:29:07;;;;;;;4.43;1.60;;;14.70;99.90;;;;;;5172164;28;20187;-64
2021/08/24 03:31:39;;;;;;;5.13;1.60;;;14.80;99.90;;;;;;5189466;28;20206;-65
2021/08/24 03:34:11;;;;;;;2.70;1.67;;;14.90;99.90;;;;;;5188887;28;20211;-64
2021/08/24 03:36:44;;;;;;;3.30;1.67;;;14.90;99.90;;;;;;5171840;28;20187;-63
2021/08/24 03:39:16;;;;;;;3.00;1.40;;;14.90;99.90;;;;;;5188644;28;20206;-65
2021/08/24 03:41:49;;;;;;;6.90;1.60;;;14.90;99.90;;;;;;5188815;28;20206;-63
2021/08/24 03:44:22;;;;;;;3.37;1.40;;;15.00;99.90;;;;;;5171795;28;20214;-67
2021/08/24 03:46:55;;;;;;;3.20;1.97;;;15.10;99.90;;;;;;5188792;28;20206;-66
2021/08/24 03:49:27;;;;;;;3.80;1.57;;;15.10;99.90;;;;;;5188667;28;20206;-66
2021/08/24 03:52:01;;;;;;;4.93;1.70;;;15.10;99.90;;;;;;5171649;28;20203;-65
2021/08/24 03:54:34;;;;;;;4.03;1.33;;;15.10;99.90;;;;;;5190663;28;20598;-65
2021/08/24 03:57:06;;;;;;;3.40;1.73;;;15.10;99.90;;;;;;5188687;28;20209;-66
2021/08/24 03:59:38;;;;;;;4.17;1.60;;;15.10;99.90;;;;;;5188578;28;20285;-67
2021/08/24 04:02:10;;;;;;;4.70;1.70;;;15.10;99.90;;;;;;5188246;28;20546;-66
2021/08/24 04:04:42;;;;;;;2.47;1.50;;;15.10;99.90;;;;;;5155370;28;20206;-66
2021/08/24 04:07:14;;;;;;;4.33;1.80;;;15.00;99.90;;;;;;5171248;28;20243;-63
2021/08/24 04:09:47;;;;;;;3.47;1.63;;;15.00;99.90;;;;;;5170966;28;20234;-65
2021/08/24 04:12:19;;;;;;;4.63;1.73;;;15.00;99.90;;;;;;5154778;28;20546;-64
2021/08/24 04:14:51;;;;;;;2.87;1.50;;;15.10;99.90;;;;;;5170806;28;20658;-66
2021/08/24 04:17:23;;;;;;;3.50;1.60;;;15.10;99.90;;;;;;5171277;28;20207;-63
2021/08/24 04:19:58;;;;;;;3.10;1.20;;;15.10;99.90;;;;;;5188230;28;20278;-67
2021/08/24 04:22:30;;;;;;;4.67;1.50;;;15.10;99.90;;;;;;5154732;28;20259;-66
2021/08/24 04:25:03;;;;;;;2.83;1.60;;;15.20;99.90;;;;;;5187847;28;20634;-66
2021/08/24 04:27:38;;;;;;;3.17;1.57;;;15.20;99.90;;;;;;5187966;28;20722;-65
2021/08/24 04:30:10;;;;;;;3.77;1.83;;;15.20;99.90;;;;;;5187848;28;20210;-65
2021/08/24 04:32:48;;;;;;;5.57;1.80;;;15.20;99.90;;;;;;5171134;28;20345;-64
2021/08/24 04:35:22;;;;;;;5.97;2.37;;;15.30;99.90;;;;;;5188291;28;20638;-63
2021/08/24 04:37:55;;;;;;;4.53;1.43;;;15.30;99.90;;;;;;5170999;28;20206;-66
2021/08/24 04:40:30;;;;;;;4.77;1.80;;;15.30;99.90;;;;;;5171095;28;20643;-65
2021/08/24 04:43:02;;;;;;;4.30;1.63;;;15.30;99.90;;;;;;5187850;28;20570;-69
2021/08/24 04:45:37;;;;;;;8.33;1.80;;;15.30;99.90;;;;;;5171595;28;20588;-63
2021/08/24 04:48:10;;;;;;;5.03;1.80;;;15.40;99.90;;;;;;5187758;28;20276;-68
2021/08/24 04:50:45;;;;;;;4.33;1.50;;;15.40;99.90;;;;;;5170914;28;20716;-66
2021/08/24 04:53:17;;;;;;;3.27;1.67;;;15.50;99.90;;;;;;5171249;28;20614;-66
2021/08/24 04:55:50;;;;;;;3.03;1.50;;;15.50;99.90;;;;;;5188264;28;20535;-65
2021/08/24 04:58:22;;;;;;;2.87;1.47;;;15.50;99.90;;;;;;5187859;28;20227;-65
2021/08/24 05:00:54;;;;;;;3.00;1.70;;;15.50;99.90;;;;;;5187657;28;20301;-67
2021/08/24 05:03:26;;;;;;;4.27;1.73;;;15.50;99.90;;;;;;5187545;28;20227;-66
2021/08/24 05:05:58;;;;;;;3.80;1.60;;;15.50;99.90;;;;;;5170378;28;20199;-65
2021/08/24 05:08:33;;;;;;;4.53;1.80;;;15.50;99.90;;;;;;5187320;28;20210;-68
2021/08/24 05:11:06;;;;;;;3.73;1.63;;;15.50;99.90;;;;;;5187719;28;20544;-64
2021/08/24 05:13:38;;;;;;;2.87;1.67;;;15.50;99.90;;;;;;5170171;28;20202;-69
2021/08/24 05:16:10;;;;;;;4.23;1.77;;;15.60;99.90;;;;;;5170227;28;20676;-66
2021/08/24 05:18:42;;;;;;;4.63;1.73;;;15.70;99.90;;;;;;5188097;28;20499;-66
2021/08/24 05:21:14;;;;;;;5.53;2.07;;;15.80;99.90;;;;;;5187118;28;20206;-66
2021/08/24 05:23:46;;;;;;;4.90;1.60;;;15.90;99.90;;;;;;5171400;28;20231;-66
2021/08/24 05:26:20;;;;;;;5.27;2.03;;;16.00;99.90;;;;;;5191128;28;20631;-66
2021/08/24 05:28:52;;;;;;;3.03;1.70;;;16.00;99.90;;;;;;5174257;28;20207;-68
2021/08/24 05:31:24;;;;;;;5.73;1.80;;;16.10;99.90;;;;;;5174175;28;20553;-68
2021/08/24 05:33:56;;;;;;;3.23;1.60;;;16.10;99.90;;;;;;5173856;28;20556;-66
2021/08/24 05:36:28;;;;;;;5.83;2.23;;;16.10;99.90;;;;;;5174055;28;20206;-67
2021/08/24 05:39:02;;;;;;;5.87;1.87;;;16.10;99.90;;;;;;5158283;28;20206;-65
2021/08/24 05:41:35;;;;;;;3.50;1.77;;;16.10;99.90;;;;;;5191153;28;20225;-67
2021/08/24 05:44:07;;;;;;;3.53;1.93;;;16.20;99.90;;;;;;5190002;28;20237;-66
2021/08/24 05:46:42;;;;;;;4.53;1.83;;;16.40;99.90;;;;;;5170786;28;21578;-63
2021/08/24 05:49:14;;;;;;;5.53;1.90;;;16.50;99.90;;;;;;5170424;28;20202;-68
2021/08/24 05:51:46;;;;;;;5.40;2.00;;;16.40;99.90;;;;;;5176712;28;20226;-68
2021/08/24 05:54:18;;;;;;;4.80;2.10;;;16.50;99.90;;;;;;5154655;28;20581;-68
2021/08/24 05:56:50;;;;;;;4.47;2.00;;;16.30;99.90;;;;;;5154447;28;20526;-70
2021/08/24 05:59:22;;;;;;;2.87;1.60;;;16.20;99.90;;;;;;5160365;28;20219;-65
2021/08/24 06:01:54;;;;;;;5.10;2.30;;;16.10;99.90;;;;;;5166980;28;20235;-70
2021/08/24 06:04:27;;;;;;;6.97;2.57;;;15.90;99.90;;;;;;5173498;28;20244;-69
2021/08/24 06:06:58;;;;;;;6.50;2.50;;;15.80;99.90;;;;;;5157617;28;20206;-64
2021/08/24 06:09:33;;;;;;;6.20;2.60;;;15.80;99.90;;;;;;5190463;28;20318;-66
2021/08/24 06:12:06;;;;;;;6.47;2.73;;;15.70;99.90;;;;;;5190998;28;20293;-68
2021/08/24 06:14:38;;;;;;;6.23;2.30;;;15.60;99.90;;;;;;5190558;28;20721;-67
2021/08/24 06:17:12;;;;;;;6.57;2.40;;;15.70;99.90;;;;;;5166425;28;20216;-69
2021/08/24 06:19:44;;;;;;;4.33;2.43;;;15.70;99.90;;;;;;5158643;28;20615;-68
2021/08/24 06:22:16;;;;;;;5.50;2.63;;;15.80;99.90;;;;;;5157379;28;20207;-66
2021/08/24 06:24:48;;;;;;;6.53;2.57;;;16.00;99.90;;;;;;5170345;28;20615;-69
2021/08/24 06:27:19;;;;;;;6.27;2.33;;;16.30;99.90;;;;;;5170322;28;20199;-67
2021/08/24 06:29:52;;;;;;;7.80;2.53;;;16.40;99.90;;;;;;5170326;28;20227;-68
2021/08/24 06:32:37;;;;;;;4.60;2.40;;;17.30;99.90;;;;;;5169903;28;20215;-67
2021/08/24 06:35:12;;;;;;;5.70;2.30;;;18.60;99.90;;;;;;5152587;28;20660;-67
2021/08/24 06:37:43;;;;;;;6.72;2.45;;;19.70;99.90;;;;;;5153338;28;20305;-69
2021/08/24 06:40:19;;;;;;;5.53;2.53;;;20.40;99.90;;;;;;5183006;28;20227;-67
2021/08/24 06:42:53;;;;;;;4.32;2.05;;;21.00;99.90;;;;;;5189899;28;20665;-65
2021/08/24 06:45:28;;;;;;;5.53;2.20;;;21.00;99.90;;;;;;5174291;28;20528;-63
2021/08/24 06:48:00;;;;;;;4.07;2.22;;;20.90;99.90;;;;;;5174308;28;20221;-63
2021/08/24 06:50:33;;;;;;;5.00;2.30;;;20.90;99.90;;;;;;5156555;28;20226;-66
2021/08/24 06:53:05;;;;;;;6.45;2.78;;;21.00;99.90;;;;;;5170763;28;20215;-65
2021/08/24 06:55:38;;;;;;;5.15;2.70;;;20.80;99.90;;;;;;5152387;28;20319;-65
2021/08/24 06:58:11;;;;;;;3.85;2.15;;;20.80;99.90;;;;;;5152825;28;20635;-65
2021/08/24 07:00:49;;;;;;;5.55;2.53;;;20.50;99.90;;;;;;5152320;28;20301;-69
2021/08/24 07:03:26;;;;;;;5.32;2.35;;;21.20;99.90;;;;;;5169216;28;20211;-65
2021/08/24 07:06:01;;;;;;;4.38;2.42;;;22.10;99.90;;;;;;5152612;28;20317;-65
2021/08/24 07:08:32;;;;;;;4.18;2.17;;;21.80;99.90;;;;;;5152135;28;20210;-63
2021/08/24 07:11:05;;;;;;;4.55;2.30;;;21.20;99.90;;;;;;5161360;28;20716;-62
2021/08/24 07:13:37;;;;;;;5.13;2.40;;;20.50;99.90;;;;;;5172412;28;20635;-69
2021/08/24 07:16:13;;;;;;;5.60;2.60;;;20.00;99.90;;;;;;5173917;28;20746;-68
2021/08/24 07:18:45;;;;;;;3.97;2.15;;;20.70;99.90;;;;;;5168975;28;20187;-65
2021/08/24 07:21:17;;;;;;;3.22;1.67;;;22.20;99.90;;;;;;5152104;28;20231;-65
2021/08/24 07:23:50;;;;;;;4.50;2.50;;;22.30;99.90;;;;;;5168665;28;20231;-67
2021/08/24 07:26:22;;;;;;;5.45;2.30;;;22.70;99.90;;;;;;5151595;28;20532;-63
2021/08/24 07:28:54;;;;;;;5.90;2.35;;;23.40;99.90;;;;;;5168684;28;20199;-68
2021/08/24 07:31:28;;;;;;;6.82;2.30;;;24.20;99.90;;;;;;5151776;28;20231;-66
2021/08/24 07:34:08;;;;;;;6.07;2.72;;;23.70;99.90;;;;;;5135994;28;20257;-62
2021/08/24 07:36:42;;;;;;;4.22;1.80;;;22.20;99.90;;;;;;5152004;28;20235;-67
2021/08/24 07:39:14;;;;;;;3.67;2.45;;;20.90;99.90;;;;;;5164282;28;20207;-60
2021/08/24 07:41:52;;;;;;;6.25;2.20;;;20.20;99.90;;;;;;5169544;28;20250;-64
2021/08/24 07:44:26;;;;;;;5.03;2.67;;;19.70;99.90;;;;;;5187321;28;20541;-69
2021/08/24 07:47:01;;;;;;;3.35;2.10;;;19.30;99.90;;;;;;5171645;28;20551;-68
2021/08/24 07:49:37;;;;;;;5.38;2.35;;;19.20;99.90;;;;;;5171993;28;20514;-63
2021/08/24 07:52:10;;;;;;;5.90;1.95;;;19.60;99.90;;;;;;5181233;28;20227;-65
2021/08/24 07:54:43;;;;;;;6.65;2.10;;;19.40;99.90;;;;;;5168150;28;20215;-49
2021/08/24 07:57:15;;;;;;;4.13;1.95;;;18.70;99.90;;;;;;5168079;28;20211;-55
2021/08/24 07:59:48;;;;;;;5.70;2.00;;;18.20;99.90;;;;;;5151387;28;20187;-60
2021/08/24 08:02:20;;;;;;;5.80;2.00;;;17.70;99.90;;;;;;5153794;28;20239;-59
2021/08/24 08:04:52;;;;;;;4.70;2.15;;;17.30;99.90;;;;;;5188544;28;20215;-56
2021/08/24 08:07:26;;;;;;;4.22;2.00;;;17.10;99.90;;;;;;5170852;28;20627;-55
2021/08/24 08:09:58;;;;;;;5.20;2.08;;;17.00;99.90;;;;;;5177665;28;20203;-58
2021/08/24 08:12:31;;;;;;;4.43;1.98;;;16.90;99.90;;;;;;5168214;28;20686;-56
2021/08/24 08:15:09;;;;;;;5.57;2.10;;;16.90;99.90;;;;;;5167765;28;20231;-54
2021/08/24 08:17:41;;;;;;;5.88;2.17;;;16.70;99.90;;;;;;5150922;28;20187;-49
2021/08/24 08:20:14;;;;;;;4.60;2.10;;;16.70;99.90;;;;;;5152248;28;20346;-47
2021/08/24 08:22:49;;;;;;;6.00;2.40;;;17.00;99.90;;;;;;5155525;28;20207;-48
2021/08/24 08:25:22;;;;;;;5.85;2.13;;;17.40;99.90;;;;;;5177456;28;20219;-53
2021/08/24 08:27:57;;;;;;;6.28;2.60;;;17.60;99.90;;;;;;5168235;28;20521;-56
2021/08/24 08:30:34;;;;;;;5.93;1.95;;;17.80;99.90;;;;;;5135243;28;20206;-52
2021/08/24 08:33:06;;;;;;;4.00;1.98;;;17.70;99.90;;;;;;5181057;28;20630;-64
2021/08/24 08:35:39;;;;;;;9.68;1.90;;;17.30;99.90;;;;;;5168081;28;20628;-66
2021/08/24 08:38:11;;;;;;;4.60;1.48;;;17.20;99.90;;;;;;5168343;28;20204;-71
2021/08/24 08:40:51;;;;;;;4.38;2.08;;;17.10;99.90;;;;;;5151288;28;20214;-66
2021/08/24 08:43:55;;;;;;;4.90;1.90;;;17.20;99.90;;;;;;5168261;28;20298;-59
2021/08/24 08:47:13;;;;;;;5.03;1.60;;;17.00;99.90;;;;;;5168060;28;20188;-51
2021/08/24 08:49:56;;;;;;;6.87;2.43;;;16.90;99.90;;;;;;5153460;28;20249;-65
2021/08/24 08:52:42;;;;;;;5.57;2.37;;;16.70;99.90;;;;;;5178923;28;20217;-67
2021/08/24 08:55:47;;;;;;;4.33;1.87;;;16.60;99.90;;;;;;5188691;28;20561;-65
2021/08/24 08:58:48;;;;;;;7.87;2.37;;;16.60;99.90;;;;;;5171026;28;20211;-65
2021/08/24 09:01:25;;;;;;;7.07;2.27;;;16.50;99.90;;;;;;5189974;28;20248;-67
2021/08/24 09:04:21;;;;;;;4.27;2.17;;;16.40;99.90;;;;;;5171819;28;20535;-64
2021/08/24 09:07:00;;;;;;;4.45;1.90;;;16.40;99.90;;;;;;5171714;28;20502;-66
2021/08/24 09:09:33;;;;;;;6.13;2.10;;;16.40;99.90;;;;;;5139105;28;20195;-64
2021/08/24 09:12:09;;;;;;;6.83;2.00;;;16.50;99.90;;;;;;5172511;28;20279;-63
2021/08/24 09:14:45;;;;;;;5.20;1.90;;;16.60;99.90;;;;;;5191275;28;20206;-56
2021/08/24 09:17:24;;;;;;;4.87;1.97;;;16.70;99.90;;;;;;5178801;28;20214;-61
2021/08/24 09:20:03;;;;;;;5.65;2.17;;;16.80;99.90;;;;;;5171310;28;20192;-62
2021/08/24 09:22:35;;;;;;;4.30;1.97;;;16.80;99.90;;;;;;5171148;28;20206;-61
2021/08/24 09:25:17;;;;;;;8.43;2.17;;;16.90;99.90;;;;;;5171032;28;20565;-60
2021/08/24 09:27:51;;;;;;;5.30;2.03;;;17.00;99.90;;;;;;5171047;28;20212;-66
2021/08/24 09:30:26;;;;;;;4.50;1.85;;;17.10;99.90;;;;;;5171354;28;20507;-65
2021/08/24 09:33:07;;;;;;;6.13;2.00;;;17.10;99.90;;;;;;5171563;28;20202;-68
2021/08/24 09:35:43;;;;;;;6.10;2.08;;;17.20;99.90;;;;;;5170950;28;20303;-68
2021/08/24 09:38:22;;;;;;;5.93;2.25;;;17.30;99.90;;;;;;5154042;28;20222;-65
2021/08/24 09:41:19;;;;;;;5.55;2.28;;;17.40;99.90;;;;;;5171098;28;20250;-66
2021/08/24 09:43:56;;;;;;;4.20;2.00;;;17.50;99.90;;;;;;5170839;28;20211;-64
2021/08/24 09:46:37;;;;;;;5.15;1.90;;;17.60;99.90;;;;;;5153788;28;20245;-65
2021/08/24 09:49:20;;;;;;;6.00;2.40;;;17.40;99.90;;;;;;5170630;28;20635;-67
2021/08/24 09:52:00;;;;;;;4.47;2.10;;;17.50;99.90;;;;;;5170616;28;20235;-65
2021/08/24 09:54:55;;;;;;;6.05;2.55;;;17.30;99.90;;;;;;5167998;28;20563;-67
2021/08/24 09:57:35;;;;;;;5.88;2.40;;;17.10;99.90;;;;;;5170518;28;20234;-65
2021/08/24 10:00:36;;;;;;;5.13;2.30;;;17.10;99.90;;;;;;5170463;28;20203;-65
2021/08/24 10:03:29;;;;;;;7.47;2.58;;;17.00;99.90;;;;;;5170417;28;20301;-65
2021/08/24 10:06:27;;;;;;;4.07;2.37;;;16.80;99.90;;;;;;5170206;28;20204;-65
2021/08/24 10:09:26;;;;;;;5.33;2.33;;;16.60;99.90;;;;;;5170203;28;20604;-63
2021/08/24 10:12:22;;;;;;;7.67;2.50;;;16.70;99.90;;;;;;5170373;28;20257;-68
2021/08/24 10:14:56;;;;;;;7.70;2.30;;;16.70;99.90;;;;;;5173655;28;20774;-63
2021/08/24 10:17:33;;;;;;;12.30;3.20;;;16.80;99.90;;;;;;5173111;28;20249;-60
2021/08/24 10:20:35;;;;;;;7.70;2.50;;;16.90;99.90;;;;;;5183016;28;20222;-65
2021/08/24 10:23:13;;;;;;;5.80;2.60;;;16.90;99.90;;;;;;5151712;28;20235;-61
2021/08/24 10:25:51;;;;;;;4.90;2.23;;;16.90;99.90;;;;;;5190354;28;20226;-62
2021/08/24 10:29:13;;;;;;;5.65;2.42;;;17.10;99.90;;;;;;5180658;28;20234;-60
2021/08/24 10:31:59;;;;;;;6.30;2.90;;;17.10;99.90;;;;;;5081638;29;20631;-59
2021/08/24 10:34:36;;;;;;;5.97;2.50;;;16.80;99.90;;;;;;5088405;29;20203;-63
2021/08/24 10:37:23;;;;;;;6.23;2.90;;;16.80;99.90;;;;;;5166011;28;20206;-62
2021/08/24 10:40:07;;;;;;;6.20;2.57;;;16.90;99.90;;;;;;5189846;28;20203;-54
2021/08/24 10:42:41;;;;;;;5.27;2.90;;;17.20;99.90;;;;;;5181999;28;20211;-50
2021/08/24 10:45:33;;;;;;;7.30;2.93;;;17.20;99.90;;;;;;5175378;28;20238;-50
2021/08/24 10:48:18;;;;;;;7.10;3.27;;;17.30;99.90;;;;;;5175657;28;20271;-48
2021/08/24 10:50:56;;;;;;;5.97;2.38;;;17.30;99.90;;;;;;5174578;28;20218;-49
2021/08/24 10:53:43;;;;;;;6.13;2.42;;;17.20;99.90;;;;;;5158181;28;20654;-61
2021/08/24 10:56:30;;;;;;;5.47;2.90;;;17.10;99.90;;;;;;5190160;28;20207;-60
2021/08/24 10:59:14;;;;;;;6.03;2.78;;;17.00;99.90;;;;;;5173561;28;20628;-63
2021/08/24 11:02:22;;;;;;;7.83;2.97;;;17.10;99.90;;;;;;5180979;28;20234;-67
2021/08/24 11:04:54;;;;;;;6.35;2.90;;;17.30;99.90;;;;;;5189733;28;20733;-58
2021/08/24 11:07:39;;;;;;;6.33;2.70;;;17.40;99.90;;;;;;5167072;28;20223;-65
2021/08/24 11:10:52;;;;;;;6.55;2.97;;;17.30;99.90;;;;;;5154593;28;20297;-57
2021/08/24 11:13:47;;;;;;;7.32;2.97;;;17.30;99.90;;;;;;5167520;28;20198;-56
2021/08/24 11:16:47;;;;;;;7.32;3.30;;;17.30;99.90;;;;;;5159678;28;20203;-58
2021/08/24 11:19:36;;;;;;;7.73;3.50;;;17.20;99.90;;;;;;5182966;28;20233;-52
2021/08/24 11:22:23;;;;;;;8.47;3.63;;;17.20;99.90;;;;;;5170981;28;20203;-51
2021/08/24 11:25:33;;;;;;;6.15;3.35;;;17.30;99.90;;;;;;5172556;28;20227;-56
2021/08/24 11:28:53;;;;;;;7.55;3.38;;;17.30;99.90;;;;;;5136715;28;20196;-66
2021/08/24 11:31:49;;;;;;;7.68;3.40;;;17.40;99.90;;;;;;5172309;28;20230;-65
2021/08/24 11:34:39;;;;;;;5.93;3.10;;;17.60;99.90;;;;;;5159394;28;20322;-65
2021/08/24 11:37:23;;;;;;;9.50;3.22;;;17.60;99.90;;;;;;5184101;28;20207;-67
2021/08/24 11:40:00;;;;;;;8.73;3.08;;;17.60;99.90;;;;;;5183227;28;20530;-69
2021/08/24 11:42:48;;;;;;;8.95;3.38;;;17.50;99.90;;;;;;5189225;28;20568;-68
2021/08/24 11:45:42;;;;;;;8.38;3.25;;;17.40;99.90;;;;;;5172985;28;20273;-50
2021/08/24 11:48:27;;;;;;;7.87;2.90;;;17.30;99.90;;;;;;5168860;28;20200;-59
2021/08/24 11:51:02;;;;;;;12.05;3.25;;;17.30;99.90;;;;;;5184622;28;20206;-61
2021/08/24 11:53:49;;;;;;;7.75;2.78;;;17.30;99.90;;;;;;5174781;28;20560;-56
2021/08/24 11:56:24;;;;;;;7.28;2.53;;;17.30;99.90;;;;;;5178811;28;20235;-49
2021/08/24 11:58:57;;;;;;;9.13;3.00;;;17.30;99.90;;;;;;5179781;28;20202;-48
2021/08/24 12:01:32;;;;;;;5.57;2.70;;;17.50;99.90;;;;;;5173351;28;20249;-55
2021/08/24 12:04:09;;;;;;;5.97;2.80;;;17.30;99.90;;;;;;5160348;28;20203;-53
2021/08/24 12:06:48;;;;;;;5.22;2.65;;;16.90;99.90;;;;;;5183327;28;20233;-62
2021/08/24 12:09:49;;;;;;;8.77;2.90;;;16.80;99.90;;;;;;5175672;28;20221;-58
2021/08/24 12:12:30;;;;;;;6.32;2.55;;;16.50;99.90;;;;;;5149937;28;20345;-61
2021/08/24 12:15:27;;;;;;;5.87;2.80;;;16.40;99.90;;;;;;5171807;28;20207;-62
2021/08/24 12:18:20;;;;;;;6.00;2.73;;;16.20;99.90;;;;;;5178322;28;20651;-62
2021/08/24 12:21:31;;;;;;;6.87;2.80;;;16.00;99.90;;;;;;5171118;28;20282;-53
2021/08/24 12:24:22;;;;;;;8.27;2.80;;;15.90;99.90;;;;;;5154167;28;20227;-55
2021/08/24 12:26:57;;;;;;;8.17;3.10;;;16.00;99.90;;;;;;5183934;28;20294;-64
2021/08/24 12:29:32;;;;;;;7.60;3.10;;;16.10;99.90;;;;;;5173635;28;20226;-58
2021/08/24 12:32:06;;;;;;;8.07;2.97;;;16.20;99.90;;;;;;5187685;28;20213;-55
2021/08/24 12:34:41;;;;;;;5.93;2.80;;;16.20;99.90;;;;;;5187738;28;20213;-60
2021/08/24 12:37:21;;;;;;;6.87;3.03;;;16.30;99.90;;;;;;5154260;28;20686;-50
2021/08/24 12:39:57;;;;;;;7.10;3.70;;;16.30;99.90;;;;;;5187917;28;20207;-54
2021/08/24 12:42:32;;;;;;;9.43;3.07;;;16.40;99.90;;;;;;5173753;28;20538;-51
2021/08/24 12:45:04;;;;;;;9.70;3.83;;;16.60;99.90;;;;;;5183325;28;20653;-58
2021/08/24 12:47:41;;;;;;;6.03;2.87;;;16.70;99.90;;;;;;5156876;28;20195;-58
2021/08/24 12:50:13;;;;;;;6.23;3.70;;;16.80;99.90;;;;;;5175803;28;20620;-58
2021/08/24 12:52:47;;;;;;;8.10;2.95;;;17.10;99.90;;;;;;5169314;28;20223;-62
2021/08/24 12:55:32;;;;;;;6.27;3.20;;;17.10;99.90;;;;;;5171779;28;20213;-58
2021/08/24 12:58:27;;;;;;;7.43;2.77;;;17.10;99.90;;;;;;5177315;28;20510;-59
2021/08/24 13:01:14;;;;;;;7.50;3.47;;;17.20;99.90;;;;;;5164008;28;20242;-58
2021/08/24 13:03:52;;;;;;;7.43;3.37;;;17.40;99.90;;;;;;5149542;28;20259;-52
2021/08/24 13:06:31;;;;;;;9.77;3.00;;;17.40;99.90;;;;;;5159973;28;20223;-50
2021/08/24 13:09:18;;;;;;;5.43;3.07;;;17.50;99.90;;;;;;5151578;28;20235;-55
2021/08/24 13:12:11;;;;;;;5.72;3.10;;;17.30;99.90;;;;;;5158781;28;20207;-57
2021/08/24 13:14:53;;;;;;;7.13;3.42;;;17.30;99.90;;;;;;5161829;28;20227;-55
2021/08/24 13:17:49;;;;;;;7.47;3.22;;;17.30;99.90;;;;;;5146208;28;20207;-58
2021/08/24 13:20:31;;;;;;;6.37;3.23;;;17.20;99.90;;;;;;5145890;28;20232;-54
2021/08/24 13:23:29;;;;;;;5.90;2.90;;;17.10;99.90;;;;;;5162348;28;20218;-57
2021/08/24 13:26:11;;;;;;;6.28;3.00;;;17.10;99.90;;;;;;5155380;28;20243;-52
2021/08/24 13:28:49;;;;;;;6.75;2.95;;;17.30;99.90;;;;;;5147228;28;20514;-58
2021/08/24 13:31:40;;;;;;;9.68;2.78;;;17.40;99.90;;;;;;5147006;28;20560;-48
2021/08/24 13:34:23;;;;;;;6.72;3.10;;;17.40;99.90;;;;;;5147302;28;20201;-54
2021/08/24 13:36:55;;;;;;;7.03;2.92;;;17.50;99.90;;;;;;5159416;28;20223;-63
2021/08/24 13:39:27;;;;;;;6.55;2.83;;;17.50;99.90;;;;;;5166814;28;20522;-66
2021/08/24 13:42:03;;;;;;;6.80;2.65;;;17.40;99.90;;;;;;5166848;28;20227;-68
2021/08/24 13:44:40;;;;;;;4.90;2.33;;;17.20;99.90;;;;;;5167286;28;20497;-62
2021/08/24 13:47:23;;;;;;;6.50;2.28;;;17.00;99.90;;;;;;5155114;28;20242;-66
2021/08/24 13:49:58;;;;;;;6.43;2.47;;;16.60;99.90;;;;;;5168256;28;20208;-67